KCEZ/CEZ METAR and TAF weather

Enter ICAO airport designator
Station Type Date Time Source
KCEZ METAR 2021/07/29 02:53 UTC NOAA

KCEZ 290253Z AUTO 12003KT 10SM CLR 23/16 A3019 RMK AO2 SLP147 T02280161 57004


Station Type Date Time Source
KCEZ Decoded METAR 2021/07/29 02:53 UTC NOAA

CORTEZ MONTEZUMA COUNTY AIRPORT , CO, United States (KCEZ) 37-18N 108-38W 1797M
Jul 28, 2021 - 10:53 PM EDT / 2021.07.29 0253 UTC
Wind: from the ESE (120 degrees) at 3 MPH (3 KT):0
Visibility: 10 mile(s):0
Sky conditions: clear
Temperature: 73.0 F (22.8 C)
Dew Point: 61.0 F (16.1 C)
Relative Humidity: 65%
Pressure (altimeter): 30.19 in. Hg (1022 hPa)
Pressure tendency: 0.01 inches (0.4 hPa) lower than three hours ago
ob: KCEZ 290253Z AUTO 12003KT 10SM CLR 23/16 A3019 RMK AO2 SLP147 T02280161 57004
cycle: 3

Station Type Date Time Source
KCEZ TAF UTC NOAA

Error!

Example: see airport list